createdAt,value
2018-09-01T00:01:12.172Z,12.95
2018-09-01T00:38:27.533Z,12.56
2018-09-01T00:40:55.623Z,12.55
2018-09-01T00:43:23.669Z,12.49
2018-09-01T02:02:36.802Z,10.49
2018-09-01T02:05:06.707Z,10.49
2018-09-01T02:07:34.789Z,10.42
2018-09-01T02:10:03.026Z,10.43
2018-09-01T02:12:31.043Z,10.47
2018-09-01T02:14:59.104Z,10.36
2018-09-01T02:17:27.250Z,10.33
2018-09-01T02:19:55.309Z,10.30
2018-09-01T02:22:23.285Z,10.28
2018-09-01T02:24:51.339Z,10.35
2018-09-01T02:27:19.340Z,10.28
2018-09-01T02:29:47.439Z,10.19
2018-09-01T02:32:15.465Z,10.10
2018-09-01T02:34:43.520Z,10.09
2018-09-01T02:37:11.509Z,10.14
2018-09-01T02:39:39.788Z,10.14
2018-09-01T02:42:07.809Z,10.08
2018-09-01T02:44:35.908Z,10.03
2018-09-01T02:47:04.247Z,10.03
2018-09-01T02:49:32.450Z,9.89
2018-09-01T02:52:00.668Z,9.87
2018-09-01T02:54:29.279Z,9.90
2018-09-01T02:56:57.258Z,9.90
2018-09-01T02:59:25.697Z,9.89
2018-09-01T03:01:53.797Z,9.65
2018-09-01T03:04:22.064Z,9.54
2018-09-01T03:06:56.236Z,9.53
2018-09-01T03:09:26.608Z,9.49
2018-09-01T03:11:59.128Z,9.35
2018-09-01T03:14:27.949Z,9.31
2018-09-01T03:16:57.047Z,9.21
2018-09-01T03:19:25.999Z,9.08
2018-09-01T03:21:54.089Z,9.03
2018-09-01T03:24:22.213Z,9.02
2018-09-01T03:26:50.337Z,9.16
2018-09-01T03:29:18.329Z,9.21
2018-09-01T03:31:46.373Z,9.20
2018-09-01T03:34:14.379Z,9.26
2018-09-01T03:36:42.398Z,9.30
2018-09-01T03:39:10.389Z,9.09
2018-09-01T03:41:40.019Z,9.07
2018-09-01T03:44:08.233Z,9.05
2018-09-01T03:46:36.298Z,9.08
2018-09-01T03:49:06.093Z,9.14
2018-09-01T03:51:34.185Z,9.16
2018-09-01T03:54:02.212Z,9.13
2018-09-01T03:56:30.298Z,9.11
2018-09-01T03:58:58.408Z,9.04
2018-09-01T04:01:26.644Z,8.95
2018-09-01T04:03:54.729Z,8.75
2018-09-01T04:06:22.824Z,8.74
2018-09-01T04:08:50.763Z,8.69
2018-09-01T04:11:18.823Z,8.57
2018-09-01T04:13:46.802Z,8.56
2018-09-01T04:16:15.058Z,8.55
2018-09-01T04:18:43.089Z,8.59
2018-09-01T04:21:11.168Z,8.57
2018-09-01T04:23:39.166Z,8.53
2018-09-01T04:26:07.224Z,8.51
2018-09-01T04:28:35.724Z,8.59
2018-09-01T04:31:03.790Z,8.57
2018-09-01T04:33:31.789Z,8.54
2018-09-01T04:35:59.806Z,8.41
2018-09-01T04:38:27.824Z,8.36
2018-09-01T04:40:55.971Z,8.40
2018-09-01T04:43:24.071Z,8.41
2018-09-01T04:45:52.328Z,8.50
2018-09-01T04:48:20.469Z,8.54
2018-09-01T04:50:48.444Z,8.63
2018-09-01T04:53:16.535Z,8.84
2018-09-01T05:02:27.091Z,9.67
2018-09-01T05:04:55.135Z,10.12
2018-09-01T05:07:24.149Z,10.64
2018-09-01T05:09:52.301Z,11.10
2018-09-01T05:12:40.266Z,11.56
2018-09-01T05:18:25.134Z,12.74
2018-09-01T05:20:53.166Z,13.25
2018-09-01T05:23:21.427Z,13.41
2018-09-01T05:25:49.736Z,13.32
2018-09-01T05:28:18.378Z,13.96
2018-09-01T05:30:46.929Z,13.97
2018-09-01T05:33:18.184Z,14.13
2018-09-01T05:35:46.626Z,14.33
2018-09-01T05:38:18.459Z,14.61
2018-09-01T06:44:51.278Z,23.98
2018-09-01T06:47:20.999Z,23.67
2018-09-01T06:49:49.647Z,24.60
2018-09-01T06:52:18.500Z,24.40
2018-09-01T06:54:47.498Z,23.97
2018-09-01T06:57:15.946Z,23.82
2018-09-01T06:59:45.668Z,24.04
2018-09-01T07:02:14.360Z,23.84
2018-09-01T07:04:44.587Z,21.54
2018-09-01T07:07:13.047Z,22.78
2018-09-01T07:09:41.387Z,23.44
2018-09-01T07:12:09.756Z,23.57
2018-09-01T07:14:38.035Z,24.08
2018-09-01T07:17:06.544Z,23.75
2018-09-01T07:19:35.485Z,23.79
2018-09-01T07:22:03.827Z,23.87
2018-09-01T07:24:32.089Z,22.94
2018-09-01T07:27:00.547Z,23.28
2018-09-01T07:29:28.915Z,24.93
2018-09-01T07:31:57.295Z,24.74
2018-09-01T07:34:25.755Z,25.93
2018-09-01T07:36:54.134Z,25.72
2018-09-01T07:39:23.028Z,25.81
2018-09-01T07:41:51.368Z,26.40
2018-09-01T07:44:19.853Z,27.07
2018-09-01T07:46:49.827Z,27.49
2018-09-01T07:49:18.259Z,27.36
2018-09-01T07:51:46.449Z,27.76
2018-09-01T07:54:14.655Z,27.81
2018-09-01T07:56:42.866Z,26.95
2018-09-01T07:59:11.123Z,27.28
2018-09-01T08:01:39.228Z,25.95
2018-09-01T08:04:07.714Z,25.65
2018-09-01T08:06:40.093Z,26.85
2018-09-01T08:09:10.666Z,27.00
2018-09-01T08:11:39.453Z,25.84
2018-09-01T08:14:08.197Z,26.59
2018-09-01T08:16:36.766Z,26.96
2018-09-01T08:19:05.846Z,27.03
2018-09-01T08:21:34.266Z,26.43
2018-09-01T08:24:02.547Z,26.43
2018-09-01T08:26:30.966Z,25.13
2018-09-01T08:28:59.853Z,26.59
2018-09-01T08:31:29.046Z,25.23
2018-09-01T08:33:57.513Z,24.49
2018-09-01T08:36:25.772Z,23.47
2018-09-01T08:38:54.107Z,22.36
2018-09-01T08:41:25.112Z,20.91
2018-09-01T08:43:53.529Z,20.01
2018-09-01T08:46:21.875Z,19.34
2018-09-01T08:48:50.194Z,19.83
2018-09-01T08:51:18.554Z,22.14
2018-09-01T08:53:51.942Z,23.82
2018-09-01T08:56:20.730Z,24.54
2018-09-01T08:58:48.949Z,24.99
2018-09-01T09:01:17.525Z,26.49
2018-09-01T09:03:46.074Z,25.81
2018-09-01T09:06:14.574Z,23.94
2018-09-01T09:08:45.754Z,22.42
2018-09-01T09:11:16.268Z,22.22
2018-09-01T09:13:53.550Z,21.89
2018-09-01T09:16:22.367Z,21.40
2018-09-01T09:18:51.067Z,21.17
2018-09-01T09:21:19.530Z,20.42
2018-09-01T09:23:48.190Z,19.72
2018-09-01T09:26:16.727Z,19.74
2018-09-01T09:28:46.274Z,19.65
2018-09-01T09:31:14.813Z,19.56
2018-09-01T09:33:43.673Z,19.40
2018-09-01T09:36:12.107Z,19.36
2018-09-01T09:38:41.327Z,19.36
2018-09-01T09:41:10.187Z,20.13
2018-09-01T09:43:38.787Z,20.44
2018-09-01T09:46:07.246Z,20.83
2018-09-01T09:48:40.007Z,20.30
2018-09-01T09:51:08.489Z,19.86
2018-09-01T09:53:36.864Z,19.31
2018-09-01T09:56:05.803Z,19.68
2018-09-01T09:58:34.655Z,19.80
2018-09-01T10:01:05.528Z,19.67
2018-09-01T10:03:36.029Z,19.80
2018-09-01T10:06:04.668Z,19.88
2018-09-01T10:08:34.465Z,19.85
2018-09-01T10:11:03.429Z,19.53
2018-09-01T10:13:31.747Z,19.63
2018-09-01T10:16:00.223Z,19.50
2018-09-01T10:18:28.647Z,19.94
2018-09-01T10:20:57.027Z,20.12
2018-09-01T10:23:25.695Z,20.29
2018-09-01T10:25:54.079Z,20.37
2018-09-01T10:28:22.330Z,20.35
2018-09-01T10:30:50.667Z,20.64
2018-09-01T10:33:18.817Z,21.16
2018-09-01T10:35:47.007Z,21.17
2018-09-01T10:38:15.217Z,20.59
2018-09-01T10:40:43.535Z,20.47
2018-09-01T10:43:11.707Z,20.56
2018-09-01T10:45:40.088Z,20.82
2018-09-01T10:48:08.347Z,20.42
2018-09-01T10:50:37.405Z,20.59
2018-09-01T10:53:05.809Z,20.40
2018-09-01T10:55:35.233Z,20.88
2018-09-01T10:58:03.484Z,21.73
2018-09-01T11:00:31.998Z,21.55
2018-09-01T11:03:00.474Z,21.82
2018-09-01T11:05:28.766Z,23.07
2018-09-01T11:07:57.136Z,23.00
2018-09-01T11:10:26.129Z,22.00
2018-09-01T11:12:54.570Z,21.38
2018-09-01T11:15:22.830Z,21.11
2018-09-01T11:17:50.997Z,20.43
2018-09-01T11:20:19.333Z,20.78
2018-09-01T11:22:48.088Z,21.97
2018-09-01T11:25:17.627Z,23.32
2018-09-01T11:27:47.151Z,25.17
2018-09-01T11:30:15.454Z,25.65
2018-09-01T11:32:43.929Z,25.00
2018-09-01T11:35:12.509Z,24.26
2018-09-01T11:37:40.611Z,23.23
2018-09-01T11:40:08.703Z,22.31
2018-09-01T11:42:36.796Z,21.81
2018-09-01T11:45:05.236Z,21.29
2018-09-01T11:47:33.605Z,20.80
2018-09-01T11:50:01.737Z,20.75
2018-09-01T11:52:29.789Z,20.79
2018-09-01T11:54:57.937Z,20.81
2018-09-01T11:57:26.238Z,20.36
2018-09-01T11:59:54.538Z,20.27
2018-09-01T12:02:22.818Z,20.54
2018-09-01T12:04:50.809Z,21.14
2018-09-01T12:07:18.934Z,21.53
2018-09-01T12:09:46.989Z,21.68
2018-09-01T12:12:15.245Z,20.98
2018-09-01T12:14:43.473Z,20.93
2018-09-01T12:17:11.710Z,21.08
2018-09-01T12:19:39.676Z,21.38
2018-09-01T12:22:07.936Z,21.39
2018-09-01T12:24:35.989Z,21.56
2018-09-01T12:27:04.311Z,21.90
2018-09-01T12:29:32.571Z,22.16
2018-09-01T12:32:00.621Z,22.02
2018-09-01T12:34:28.700Z,21.71
2018-09-01T12:36:57.055Z,21.92
2018-09-01T12:39:25.208Z,21.80
2018-09-01T12:41:53.753Z,21.26
2018-09-01T12:44:21.859Z,20.76
2018-09-01T12:46:50.103Z,20.93
2018-09-01T12:49:18.126Z,20.79
2018-09-01T12:51:46.171Z,20.90
2018-09-01T12:54:14.354Z,20.94
2018-09-01T12:56:42.753Z,20.58
2018-09-01T12:59:10.997Z,20.50
2018-09-01T13:01:39.269Z,20.69
2018-09-01T13:04:07.572Z,21.24
2018-09-01T13:06:35.674Z,21.44
2018-09-01T13:09:04.751Z,21.90
2018-09-01T13:11:33.036Z,22.20
2018-09-01T13:14:01.236Z,22.09
2018-09-01T13:16:29.230Z,22.11
2018-09-01T13:18:57.425Z,21.73
2018-09-01T13:21:25.615Z,21.80
2018-09-01T13:23:56.070Z,21.68
2018-09-01T13:26:24.372Z,21.54
2018-09-01T13:28:52.695Z,21.21
2018-09-01T13:31:21.070Z,20.79
2018-09-01T13:33:49.328Z,20.92
2018-09-01T13:36:17.572Z,20.78
2018-09-01T13:38:46.039Z,20.86
2018-09-01T13:41:14.296Z,20.97
2018-09-01T13:43:42.703Z,20.83
2018-09-01T13:46:11.323Z,21.09
2018-09-01T13:48:39.683Z,21.29
2018-09-01T13:51:08.143Z,21.44
2018-09-01T13:53:36.923Z,21.18
2018-09-01T13:56:05.203Z,21.36
2018-09-01T13:58:33.652Z,21.64
2018-09-01T14:01:02.156Z,21.84
2018-09-01T14:03:31.056Z,22.02
2018-09-01T14:05:59.322Z,21.90
2018-09-01T14:08:27.608Z,21.94
2018-09-01T14:10:55.839Z,22.01
2018-09-01T14:13:24.996Z,21.52
2018-09-01T14:15:53.275Z,20.95
2018-09-01T14:18:25.286Z,20.90
2018-09-01T14:20:53.532Z,20.83
2018-09-01T14:23:21.911Z,20.87
2018-09-01T14:25:50.929Z,20.76
2018-09-01T14:28:19.863Z,21.02
2018-09-01T14:30:48.272Z,21.28
2018-09-01T14:33:17.701Z,21.55
2018-09-01T14:35:46.004Z,21.86
2018-09-01T14:38:14.497Z,21.86
2018-09-01T14:40:42.842Z,21.76
2018-09-01T14:43:11.154Z,21.58
2018-09-01T14:45:39.441Z,21.34
2018-09-01T14:48:07.961Z,21.40
2018-09-01T14:50:36.252Z,21.47
2018-09-01T14:53:05.004Z,21.09
2018-09-01T14:58:08.968Z,20.79
2018-09-01T15:00:47.172Z,20.58
2018-09-01T15:03:17.331Z,20.21
2018-09-01T15:08:38.829Z,20.37
2018-09-01T16:26:37.281Z,21.00
2018-09-01T16:29:05.842Z,20.81
2018-09-01T16:31:34.282Z,20.70
2018-09-01T16:34:02.860Z,20.68
2018-09-01T16:36:31.371Z,20.63
2018-09-01T16:38:59.762Z,20.77
2018-09-01T16:41:28.954Z,20.70
2018-09-01T16:43:57.334Z,20.59
2018-09-01T16:46:25.701Z,20.36
2018-09-01T16:48:53.981Z,20.27
2018-09-01T16:51:22.452Z,20.00
2018-09-01T16:53:50.708Z,19.88
2018-09-01T16:56:19.108Z,19.78
2018-09-01T16:58:47.528Z,19.72
2018-09-01T17:01:16.301Z,19.59
2018-09-01T17:03:44.701Z,19.51
2018-09-01T17:06:13.137Z,19.39
2018-09-01T17:08:41.396Z,19.36
2018-09-01T17:11:09.696Z,19.37
2018-09-01T17:13:38.027Z,19.38
2018-09-01T17:16:06.623Z,19.45
2018-09-01T17:18:34.752Z,19.45
2018-09-01T17:21:03.264Z,19.38
2018-09-01T17:23:31.524Z,19.42
2018-09-01T17:26:00.024Z,19.35
2018-09-01T17:28:29.285Z,19.36
2018-09-01T17:30:58.392Z,19.38
2018-09-01T17:33:27.573Z,19.29
2018-09-01T17:35:56.201Z,19.23
2018-09-01T17:38:24.632Z,19.12
2018-09-01T17:40:53.124Z,19.13
2018-09-01T17:43:22.667Z,19.05
2018-09-01T17:45:51.280Z,18.98
2018-09-01T17:48:19.787Z,18.92
2018-09-01T17:50:48.361Z,18.83
2018-09-01T17:53:16.720Z,18.73
2018-09-01T17:55:45.041Z,18.75
2018-09-01T17:58:13.361Z,18.66
2018-09-01T18:00:42.021Z,18.64
2018-09-01T18:03:10.887Z,18.51
2018-09-01T18:05:39.321Z,18.46
2018-09-01T18:08:07.621Z,18.36
2018-09-01T18:10:36.039Z,18.29
2018-09-01T18:13:05.247Z,18.19
2018-09-01T18:15:33.640Z,18.06
2018-09-01T18:18:02.124Z,18.08
2018-09-01T18:20:30.524Z,17.97
2018-09-01T18:22:59.167Z,17.87
2018-09-01T18:25:27.481Z,17.81
2018-09-01T18:27:55.632Z,17.79
2018-09-01T20:50:37.061Z,14.61
2018-09-01T20:53:05.460Z,14.59
2018-09-01T20:55:33.953Z,14.59
2018-09-01T20:58:02.311Z,14.62
2018-09-01T21:00:30.803Z,14.58
2018-09-01T21:02:59.082Z,14.48
2018-09-01T21:05:27.443Z,14.44
2018-09-01T21:07:55.993Z,14.46
2018-09-01T21:10:24.452Z,14.41
2018-09-01T21:12:52.704Z,14.40
2018-09-01T21:15:21.104Z,14.36
2018-09-01T21:17:49.383Z,14.38
2018-09-01T21:20:18.800Z,14.23
2018-09-01T21:22:46.981Z,14.25
2018-09-01T21:25:15.369Z,14.26
2018-09-01T21:27:43.748Z,14.20
2018-09-01T21:30:12.058Z,14.22
2018-09-01T21:32:40.472Z,14.28
2018-09-01T21:35:08.972Z,14.24
2018-09-01T21:37:39.092Z,14.23
2018-09-01T21:40:07.572Z,14.20
2018-09-01T21:42:36.214Z,14.17
2018-09-01T21:45:04.594Z,14.19
2018-09-01T21:47:33.046Z,14.15
2018-09-01T21:50:01.567Z,14.10
2018-09-01T21:52:30.028Z,14.14
2018-09-01T21:54:58.403Z,14.16
2018-09-01T21:57:26.762Z,14.09
2018-09-01T21:59:55.362Z,14.09
2018-09-01T22:02:25.948Z,14.03
2018-09-01T22:04:59.676Z,13.94
2018-09-01T22:07:28.136Z,13.93
2018-09-01T22:09:56.503Z,13.89
2018-09-01T22:12:24.974Z,13.86
2018-09-01T22:14:54.318Z,13.77
2018-09-01T22:17:23.115Z,13.73
2018-09-01T22:19:51.603Z,13.68
2018-09-01T22:22:20.155Z,13.63
2018-09-01T22:24:48.612Z,13.65
2018-09-01T22:27:17.026Z,13.64
2018-09-01T22:29:45.367Z,13.69
2018-09-01T22:32:13.775Z,13.73
2018-09-01T22:34:42.496Z,13.77
2018-09-01T22:37:10.873Z,13.82
2018-09-01T22:39:39.194Z,13.85
2018-09-01T22:42:07.635Z,13.83
2018-09-01T22:44:35.738Z,13.79
2018-09-01T22:47:06.953Z,13.80
2018-09-01T22:49:35.285Z,13.84
2018-09-01T22:52:03.829Z,13.86
2018-09-01T22:54:32.182Z,13.81
2018-09-01T22:57:00.625Z,13.73
2018-09-01T22:59:28.963Z,13.70
2018-09-01T23:01:57.523Z,13.70
2018-09-01T23:04:25.824Z,13.67
2018-09-01T23:06:54.323Z,13.60
2018-09-01T23:09:22.715Z,13.54
2018-09-01T23:11:51.604Z,13.55
2018-09-01T23:14:20.026Z,13.49
2018-09-01T23:16:48.503Z,13.38
2018-09-01T23:19:16.844Z,13.30
2018-09-01T23:21:45.403Z,13.30
2018-09-01T23:24:13.751Z,13.21
2018-09-01T23:26:42.604Z,13.18
2018-09-01T23:29:11.044Z,13.15
2018-09-01T23:31:39.818Z,13.12
2018-09-01T23:34:08.515Z,13.05
2018-09-01T23:36:36.844Z,12.97
2018-09-01T23:39:07.118Z,12.89
2018-09-01T23:41:35.586Z,12.84
2018-09-01T23:44:03.994Z,12.85
2018-09-01T23:46:32.367Z,12.72
2018-09-01T23:49:00.724Z,12.71
2018-09-01T23:51:29.118Z,12.72
2018-09-01T23:53:58.058Z,12.58
2018-09-01T23:56:26.435Z,12.57
2018-09-01T23:58:55.209Z,12.53
